Time;durP1;ratioP1;P1;durP2;ratioP2;P2;SDS_P1;SDS_P2;PMS_P1;PMS_P2;Temp;Humidity;BMP_temperature;BMP_pressure;BME280_temperature;BME280_humidity;BME280_pressure;Samples;Min_cycle;Max_cycle;Signal;HPM_P1;HPM_P2
2023/03/31 00:04:52;;;;;;;9.90;4.65;;;;;;;0.00;100.00;59042.03;10342270;28;20087;-76
2023/03/31 00:09:54;;;;;;;13.52;5.82;;;;;;;0.00;100.00;59042.03;10370463;28;20030;-76
2023/03/31 00:14:54;;;;;;;9.20;5.05;;;;;;;0.00;100.00;59042.03;10348710;28;20058;-76
2023/03/31 00:19:59;;;;;;;10.43;4.28;;;;;;;0.00;100.00;59042.03;10380443;28;20445;-76
2023/03/31 00:24:59;;;;;;;13.27;5.15;;;;;;;0.00;100.00;59042.03;10380449;28;20827;-76
2023/03/31 00:30:00;;;;;;;9.77;6.25;;;;;;;0.00;100.00;59042.03;10380405;28;20033;-76
2023/03/31 00:35:01;;;;;;;13.48;4.57;;;;;;;0.00;100.00;59042.03;10380385;28;20042;-76
2023/03/31 00:40:08;;;;;;;7.88;3.83;;;;;;;0.00;100.00;59042.03;10380718;28;20049;-76
2023/03/31 00:45:17;;;;;;;9.85;4.80;;;;;;;0.00;100.00;59042.03;10381200;28;20017;-76
2023/03/31 00:50:33;;;;;;;9.57;3.88;;;;;;;0.00;100.00;59042.03;10380274;28;20418;-76
2023/03/31 00:55:39;;;;;;;13.57;4.97;;;;;;;0.00;100.00;59042.03;10380203;28;20392;-76
2023/03/31 01:00:41;;;;;;;14.63;4.68;;;;;;;0.00;100.00;59042.03;10378976;28;20492;-76
2023/03/31 01:06:09;;;;;;;9.57;3.53;;;;;;;0.00;100.00;59042.03;10378996;28;20411;-76
2023/03/31 01:11:15;;;;;;;11.20;3.20;;;;;;;0.00;100.00;59042.03;10380308;28;20120;-76
2023/03/31 01:16:17;;;;;;;9.63;3.00;;;;;;;0.00;100.00;59042.03;10409722;28;20060;-75
2023/03/31 01:21:36;;;;;;;13.48;3.55;;;;;;;0.00;100.00;59042.03;10379076;28;20164;-76
2023/03/31 01:26:52;;;;;;;10.10;3.38;;;;;;;0.00;100.00;59042.03;10378615;28;20500;-76
2023/03/31 01:32:30;;;;;;;16.58;4.50;;;;;;;0.00;100.00;59042.03;10378497;28;20031;-75
2023/03/31 01:37:43;;;;;;;9.90;3.78;;;;;;;0.00;100.00;59042.03;10377899;28;20033;-75
2023/03/31 01:42:54;;;;;;;6.65;3.33;;;;;;;0.00;100.00;59042.03;10378278;28;20558;-76
2023/03/31 01:48:05;;;;;;;7.22;3.10;;;;;;;0.00;100.00;59042.03;10376596;28;20052;-76
2023/03/31 01:53:23;;;;;;;13.32;4.25;;;;;;;0.00;100.00;59042.03;10376354;28;20457;-75
2023/03/31 01:58:32;;;;;;;8.98;3.38;;;;;;;0.00;100.00;59042.03;10375944;28;20465;-77
2023/03/31 02:03:40;;;;;;;16.08;3.65;;;;;;;0.00;100.00;59042.03;10376289;28;20381;-76
2023/03/31 02:08:45;;;;;;;7.50;3.40;;;;;;;0.00;100.00;59042.03;10374650;28;20017;-76
2023/03/31 02:13:51;;;;;;;8.52;3.30;;;;;;;0.00;100.00;59042.03;10375221;28;20049;-77
2023/03/31 02:19:01;;;;;;;8.82;3.78;;;;;;;0.00;100.00;59042.03;10376544;28;20470;-76
2023/03/31 02:24:05;;;;;;;8.88;4.15;;;;;;;0.00;100.00;59042.03;10371093;28;20025;-76
2023/03/31 02:29:06;;;;;;;13.68;5.35;;;;;;;0.00;100.00;59042.03;10374190;28;20029;-75
2023/03/31 02:34:06;;;;;;;22.40;7.47;;;;;;;0.00;100.00;59042.03;10375269;28;20511;-75
2023/03/31 02:39:22;;;;;;;20.23;7.70;;;;;;;0.00;100.00;59042.03;10374860;28;20040;-76
2023/03/31 02:44:23;;;;;;;26.42;7.90;;;;;;;0.00;100.00;59042.03;10377209;28;20036;-76
2023/03/31 02:49:24;;;;;;;23.38;9.43;;;;;;;0.00;100.00;59042.03;10379051;28;20381;-76
2023/03/31 02:54:59;;;;;;;16.17;6.05;;;;;;;0.00;100.00;59042.03;10384915;28;20032;-76
2023/03/31 03:00:09;;;;;;;19.08;6.80;;;;;;;0.00;100.00;59042.03;10351222;28;20037;-77
2023/03/31 03:05:34;;;;;;;13.93;5.97;;;;;;;0.00;100.00;59042.03;10350377;28;20615;-77
2023/03/31 03:10:51;;;;;;;10.65;4.68;;;;;;;0.00;100.00;59042.03;10382500;28;20463;-77
2023/03/31 03:16:17;;;;;;;10.55;5.68;;;;;;;0.00;100.00;59042.03;10370498;28;20033;-76
2023/03/31 03:21:18;;;;;;;21.33;4.30;;;;;;;0.00;100.00;59042.03;10380126;28;20495;-75
2023/03/31 03:26:20;;;;;;;9.45;4.72;;;;;;;0.00;100.00;59042.03;10381587;28;20034;-76
2023/03/31 03:31:22;;;;;;;6.32;3.47;;;;;;;0.00;100.00;59042.03;10383051;28;20460;-74
2023/03/31 03:36:23;;;;;;;7.03;3.35;;;;;;;0.00;100.00;59042.03;10382796;28;20112;-75
2023/03/31 03:41:23;;;;;;;10.07;4.72;;;;;;;0.00;100.00;59042.03;10382480;28;20039;-80
2023/03/31 03:46:24;;;;;;;10.80;4.60;;;;;;;0.00;100.00;59042.03;10381793;28;20053;-75
2023/03/31 03:51:24;;;;;;;11.27;6.00;;;;;;;0.00;100.00;59042.03;10382472;28;20057;-75
2023/03/31 03:56:26;;;;;;;15.50;6.13;;;;;;;0.00;100.00;59042.03;10380516;28;20358;-75
2023/03/31 04:01:26;;;;;;;11.50;5.35;;;;;;;0.00;100.00;59042.03;10389519;28;20029;-75
2023/03/31 04:06:27;;;;;;;12.10;5.30;;;;;;;0.00;100.00;59042.03;10387008;28;20532;-75
2023/03/31 04:11:27;;;;;;;13.20;5.77;;;;;;;0.00;100.00;59042.03;10385204;28;20033;-75
2023/03/31 04:16:28;;;;;;;14.88;5.70;;;;;;;0.00;100.00;59042.03;10377458;28;20402;-77
2023/03/31 04:21:29;;;;;;;15.68;6.10;;;;;;;0.00;100.00;59042.03;10376067;28;20114;-77
2023/03/31 04:26:41;;;;;;;12.45;4.88;;;;;;;0.00;100.00;59042.03;10369363;28;20040;-77
2023/03/31 04:31:42;;;;;;;7.32;4.88;;;;;;;0.00;100.00;59042.03;10338126;28;20088;-77
2023/03/31 04:36:45;;;;;;;7.38;4.53;;;;;;;0.00;100.00;59042.03;10338280;28;20042;-77
2023/03/31 04:41:46;;;;;;;13.73;5.95;;;;;;;0.00;100.00;59042.03;10364664;28;20054;-77
2023/03/31 04:46:46;;;;;;;9.47;5.30;;;;;;;0.00;100.00;59042.03;10357847;28;20061;-76
2023/03/31 04:57:04;;;;;;;13.07;5.28;;;;;;;0.00;100.00;59042.03;10430971;22;20399;-77
2023/03/31 05:02:04;;;;;;;11.43;5.15;;;;;;;0.00;100.00;59042.03;10347792;28;20033;-77
2023/03/31 05:07:05;;;;;;;9.57;3.95;;;;;;;0.00;100.00;59042.03;10353738;28;20024;-79
2023/03/31 05:12:06;;;;;;;9.48;4.30;;;;;;;0.00;100.00;59042.03;10352647;28;20084;-77
2023/03/31 05:17:06;;;;;;;9.68;4.53;;;;;;;0.00;100.00;59042.03;10362559;28;20030;-77
2023/03/31 05:22:07;;;;;;;10.15;5.07;;;;;;;0.00;100.00;59042.03;10380828;28;20132;-76
2023/03/31 05:27:07;;;;;;;15.63;6.10;;;;;;;0.00;100.00;59042.03;10380417;28;20667;-76
2023/03/31 05:32:08;;;;;;;10.63;5.45;;;;;;;0.00;100.00;59042.03;10354234;28;20097;-77
2023/03/31 05:37:08;;;;;;;18.73;6.53;;;;;;;0.00;100.00;59042.03;10352316;28;20435;-78
2023/03/31 05:42:09;;;;;;;14.15;6.30;;;;;;;0.00;100.00;59042.03;10376830;28;20100;-79
2023/03/31 05:47:09;;;;;;;17.08;6.88;;;;;;;0.00;100.00;59042.03;10381828;28;20032;-79
2023/03/31 05:52:11;;;;;;;13.50;6.28;;;;;;;0.00;100.00;59042.03;10380001;28;20555;-78
2023/03/31 05:57:11;;;;;;;12.07;6.43;;;;;;;0.00;100.00;59042.03;10378062;28;20057;-78
2023/03/31 06:02:14;;;;;;;13.27;7.45;;;;;;;0.00;100.00;59042.03;10371631;28;20431;-77
2023/03/31 06:07:16;;;;;;;20.20;7.22;;;;;;;0.00;100.00;59042.03;10369549;28;20437;-76
2023/03/31 06:12:17;;;;;;;21.13;7.32;;;;;;;0.00;100.00;59042.03;10355200;28;20504;-79
2023/03/31 06:17:17;;;;;;;10.07;6.10;;;;;;;0.00;100.00;59042.03;10378556;28;20382;-77
2023/03/31 06:22:18;;;;;;;25.92;7.88;;;;;;;0.00;100.00;59042.03;10380011;28;20086;-79
2023/03/31 06:27:18;;;;;;;15.35;6.15;;;;;;;0.00;100.00;59042.03;10383767;28;20499;-79
2023/03/31 06:32:19;;;;;;;23.90;7.32;;;;;;;0.00;100.00;59042.03;10346729;28;20061;-76
2023/03/31 06:37:19;;;;;;;16.47;6.97;;;;;;;0.00;100.00;59042.03;10374997;28;20171;-77
2023/03/31 06:42:19;;;;;;;11.82;6.97;;;;;;;0.00;100.00;59042.03;10386527;28;20291;-76
2023/03/31 06:47:20;;;;;;;21.37;7.17;;;;;;;0.00;100.00;59042.03;10386553;28;20022;-76
2023/03/31 06:52:20;;;;;;;12.18;5.63;;;;;;;0.00;100.00;59042.03;10385690;28;20511;-76
2023/03/31 06:57:21;;;;;;;17.27;5.43;;;;;;;0.00;100.00;59042.03;10384141;28;20038;-75
2023/03/31 07:02:21;;;;;;;18.30;4.93;;;;;;;0.00;100.00;59042.03;10383242;28;20264;-75
2023/03/31 07:07:21;;;;;;;17.55;6.22;;;;;;;0.00;100.00;59042.03;10382203;28;20379;-77
2023/03/31 07:12:22;;;;;;;14.70;5.23;;;;;;;0.00;100.00;59042.03;10385684;28;20021;-75
2023/03/31 07:17:24;;;;;;;7.60;4.67;;;;;;;0.00;100.00;59042.03;10384136;28;20725;-76
2023/03/31 07:22:25;;;;;;;20.40;6.80;;;;;;;0.00;100.00;59042.03;10385366;28;20275;-76
2023/03/31 07:27:25;;;;;;;10.63;5.35;;;;;;;0.00;100.00;59042.03;10384930;28;20452;-76
2023/03/31 07:32:26;;;;;;;21.83;5.65;;;;;;;0.00;100.00;59042.03;10359772;28;20108;-76
2023/03/31 07:37:26;;;;;;;16.13;4.55;;;;;;;0.00;100.00;59042.03;10384042;28;20092;-77
2023/03/31 07:42:27;;;;;;;20.35;7.53;;;;;;;0.00;100.00;59042.03;10384402;28;20091;-76
2023/03/31 07:47:27;;;;;;;16.77;5.13;;;;;;;0.00;100.00;59042.03;10385407;28;20065;-79
2023/03/31 07:52:28;;;;;;;15.75;5.15;;;;;;;0.00;100.00;59042.03;10384409;28;20414;-77
2023/03/31 07:57:28;;;;;;;20.90;5.17;;;;;;;0.00;100.00;59042.03;10384973;28;20029;-76
2023/03/31 08:02:29;;;;;;;11.68;3.65;;;;;;;0.00;100.00;59042.03;10381281;28;20140;-77
2023/03/31 08:07:33;;;;;;;9.93;3.13;;;;;;;0.00;100.00;59042.03;10383868;28;20029;-77
2023/03/31 08:12:33;;;;;;;6.57;2.97;;;;;;;0.00;100.00;59042.03;10381255;28;20303;-77
2023/03/31 08:17:34;;;;;;;19.00;2.77;;;;;;;0.00;100.00;59042.03;10379827;28;20048;-78
2023/03/31 08:22:39;;;;;;;7.35;2.17;;;;;;;0.00;100.00;59042.03;10381073;28;20023;-78
2023/03/31 08:27:40;;;;;;;7.07;2.80;;;;;;;0.00;100.00;59042.03;10383313;28;20141;-77
2023/03/31 08:32:40;;;;;;;12.57;3.58;;;;;;;0.00;100.00;59042.03;10383257;28;20435;-77
2023/03/31 08:37:41;;;;;;;13.35;2.63;;;;;;;0.00;100.00;59042.03;10382245;28;20160;-75
2023/03/31 08:42:49;;;;;;;10.73;2.85;;;;;;;0.00;100.00;59042.03;10382315;28;20159;-76
2023/03/31 08:47:56;;;;;;;5.43;2.13;;;;;;;0.00;100.00;59042.03;10381629;28;20033;-79
2023/03/31 08:53:05;;;;;;;9.15;2.47;;;;;;;0.00;100.00;59042.03;10382200;28;20054;-77
2023/03/31 08:58:16;;;;;;;9.73;2.53;;;;;;;0.00;100.00;59042.03;10382255;28;20127;-77
2023/03/31 09:03:38;;;;;;;7.53;2.30;;;;;;;0.00;100.00;59042.03;10380463;28;20034;-76
2023/03/31 09:08:42;;;;;;;5.68;2.15;;;;;;;0.00;100.00;59042.03;10381623;28;20727;-76
2023/03/31 09:13:51;;;;;;;6.28;2.38;;;;;;;0.00;100.00;59042.03;10380267;28;20159;-75
2023/03/31 09:18:59;;;;;;;18.27;2.22;;;;;;;0.00;100.00;59042.03;10377766;28;20053;-76
2023/03/31 09:24:18;;;;;;;9.98;1.63;;;;;;;0.00;100.00;59042.03;10373610;28;20073;-75
2023/03/31 09:29:37;;;;;;;10.30;1.95;;;;;;;0.00;100.00;59042.03;10378299;28;20048;-76
2023/03/31 09:34:38;;;;;;;8.05;2.00;;;;;;;0.00;100.00;59042.03;10380985;28;20044;-77
2023/03/31 09:39:39;;;;;;;3.08;1.90;;;;;;;0.00;100.00;59042.03;10380465;28;20028;-76
2023/03/31 09:44:43;;;;;;;6.68;2.40;;;;;;;0.00;100.00;59042.03;10380452;28;20358;-77
2023/03/31 09:49:45;;;;;;;7.53;1.60;;;;;;;0.00;100.00;59042.03;10379937;28;20026;-75
2023/03/31 09:54:50;;;;;;;5.60;1.73;;;;;;;0.00;100.00;59042.03;10380350;28;20144;-76
2023/03/31 09:59:51;;;;;;;4.13;1.63;;;;;;;0.00;100.00;59042.03;10383577;28;20037;-77
2023/03/31 10:04:51;;;;;;;5.32;1.70;;;;;;;0.00;100.00;59042.03;10387982;28;20859;-77
2023/03/31 10:09:54;;;;;;;8.15;2.28;;;;;;;0.00;100.00;59042.03;10387448;28;20510;-76
2023/03/31 10:15:13;;;;;;;9.25;1.65;;;;;;;0.00;100.00;59042.03;10380719;28;20025;-76
2023/03/31 10:20:29;;;;;;;8.23;1.42;;;;;;;0.00;100.00;59042.03;10387216;28;20464;-75
2023/03/31 10:25:32;;;;;;;5.43;1.90;;;;;;;0.00;100.00;59042.03;10386340;28;20156;-75
2023/03/31 10:30:36;;;;;;;5.57;1.40;;;;;;;0.00;100.00;59042.03;10381879;28;20036;-77
2023/03/31 10:35:37;;;;;;;4.05;1.27;;;;;;;0.00;100.00;59042.03;10387686;28;20064;-76
2023/03/31 10:40:48;;;;;;;7.32;1.90;;;;;;;0.00;100.00;59042.03;10386968;28;20021;-76
2023/03/31 10:45:51;;;;;;;4.97;1.98;;;;;;;0.00;100.00;59042.03;10363259;28;20356;-77
2023/03/31 10:50:53;;;;;;;7.75;1.52;;;;;;;0.00;100.00;59042.03;10346486;28;20108;-76
2023/03/31 10:56:03;;;;;;;7.15;1.65;;;;;;;0.00;100.00;59042.03;10383299;28;20132;-75
2023/03/31 11:01:42;;;;;;;7.30;1.55;;;;;;;0.00;100.00;59042.03;10386453;28;20025;-75
2023/03/31 11:06:55;;;;;;;3.22;1.30;;;;;;;0.00;100.00;59042.03;10339458;28;20091;-75
2023/03/31 11:12:14;;;;;;;5.60;1.25;;;;;;;0.00;100.00;59042.03;10347274;28;20469;-76
2023/03/31 11:17:43;;;;;;;4.45;1.63;;;;;;;0.00;100.00;59042.03;10345156;28;20033;-76
2023/03/31 11:23:14;;;;;;;9.30;2.35;;;;;;;0.00;100.00;59042.03;10355290;28;20030;-74
2023/03/31 11:28:33;;;;;;;10.63;1.85;;;;;;;0.00;100.00;59042.03;10384054;28;20417;-76
2023/03/31 11:33:43;;;;;;;8.98;1.92;;;;;;;0.00;100.00;59042.03;10385013;28;20037;-77
2023/03/31 11:39:00;;;;;;;4.22;1.75;;;;;;;0.00;100.00;59042.03;10354598;28;20345;-76
2023/03/31 11:44:04;;;;;;;4.30;1.30;;;;;;;0.00;100.00;59042.03;10377291;28;20025;-76
2023/03/31 11:49:08;;;;;;;5.00;2.55;;;;;;;0.00;100.00;59042.03;10384551;28;20042;-75
2023/03/31 11:54:26;;;;;;;3.92;1.52;;;;;;;0.00;100.00;59042.03;10384314;28;20490;-74
2023/03/31 11:59:30;;;;;;;12.88;2.63;;;;;;;0.00;100.00;59042.03;10383149;28;20033;-75
2023/03/31 12:04:40;;;;;;;7.60;1.85;;;;;;;0.00;100.00;59042.03;10382684;28;20009;-74
2023/03/31 12:10:12;;;;;;;6.35;1.90;;;;;;;0.00;100.00;59042.03;10382526;28;20053;-75
2023/03/31 12:15:38;;;;;;;2.78;1.70;;;;;;;0.00;100.00;59042.03;10356307;28;20115;-70
2023/03/31 12:20:48;;;;;;;6.22;1.55;;;;;;;0.00;100.00;59042.03;10356814;28;20116;-68
2023/03/31 12:26:14;;;;;;;6.07;1.80;;;;;;;0.00;100.00;59042.03;10381102;28;20026;-79
2023/03/31 12:31:21;;;;;;;12.55;2.58;;;;;;;0.00;100.00;59042.03;10376783;28;20030;-78
2023/03/31 12:36:55;;;;;;;14.55;1.88;;;;;;;0.00;100.00;59042.03;10388097;28;20041;-78
2023/03/31 12:42:33;;;;;;;5.85;2.83;;;;;;;0.00;100.00;59042.03;10364828;28;20030;-78
2023/03/31 12:48:08;;;;;;;4.55;2.08;;;;;;;0.00;100.00;59042.03;10376525;28;20021;-80
2023/03/31 12:53:29;;;;;;;9.90;2.00;;;;;;;0.00;100.00;59042.03;10373592;28;20416;-77
2023/03/31 12:58:32;;;;;;;7.47;2.28;;;;;;;0.00;100.00;59042.03;10358871;28;20091;-80
2023/03/31 13:03:33;;;;;;;8.15;1.88;;;;;;;0.00;100.00;59042.03;10378911;28;20044;-79
2023/03/31 13:09:07;;;;;;;8.55;1.88;;;;;;;0.00;100.00;59042.03;10372679;28;20116;-78
2023/03/31 13:14:20;;;;;;;10.20;2.22;;;;;;;0.00;100.00;59042.03;10388825;28;20084;-79
2023/03/31 13:19:29;;;;;;;7.05;1.85;;;;;;;0.00;100.00;59042.03;10385588;28;20472;-79
2023/03/31 13:24:31;;;;;;;3.85;1.92;;;;;;;0.00;100.00;59042.03;10385819;28;20025;-78
2023/03/31 13:29:34;;;;;;;5.68;1.70;;;;;;;0.00;100.00;59042.03;10383429;28;20025;-77
2023/03/31 13:34:57;;;;;;;9.00;1.98;;;;;;;0.00;100.00;59042.03;10380945;28;20129;-76
2023/03/31 13:40:16;;;;;;;15.18;3.20;;;;;;;0.00;100.00;59042.03;10381845;28;20051;-76
2023/03/31 13:45:31;;;;;;;5.95;2.13;;;;;;;0.00;100.00;59042.03;10380070;28;20113;-77
2023/03/31 13:50:52;;;;;;;3.05;1.40;;;;;;;0.00;100.00;59042.03;10381301;28;20029;-77
2023/03/31 13:56:07;;;;;;;8.57;2.10;;;;;;;0.00;100.00;59042.03;10379594;28;20168;-76
2023/03/31 14:01:29;;;;;;;6.95;2.33;;;;;;;0.00;100.00;59042.03;10380993;28;20128;-77
2023/03/31 14:06:54;;;;;;;9.10;1.80;;;;;;;0.00;100.00;59042.03;10380831;28;20787;-75
2023/03/31 14:11:55;;;;;;;9.25;3.03;;;;;;;0.00;100.00;59042.03;10382360;28;20133;-78
2023/03/31 14:16:58;;;;;;;5.50;2.42;;;;;;;0.00;100.00;59042.03;10382056;28;20112;-78
2023/03/31 14:22:42;;;;;;;8.98;1.55;;;;;;;0.00;100.00;59042.03;10382699;28;20018;-78
2023/03/31 14:27:49;;;;;;;13.48;3.45;;;;;;;0.00;100.00;59042.03;10357571;28;20376;-75
2023/03/31 14:33:14;;;;;;;9.25;2.45;;;;;;;0.00;100.00;59042.03;10381919;28;20652;-77
2023/03/31 14:38:19;;;;;;;7.13;2.10;;;;;;;0.00;100.00;59042.03;10379613;28;20026;-78
2023/03/31 14:43:22;;;;;;;7.45;2.05;;;;;;;0.00;100.00;59042.03;10379299;28;20021;-78
2023/03/31 14:48:23;;;;;;;12.15;2.13;;;;;;;0.00;100.00;59042.03;10385860;28;20021;-78
2023/03/31 14:53:25;;;;;;;13.20;2.78;;;;;;;0.00;100.00;59042.03;10386649;28;20053;-77
2023/03/31 14:58:30;;;;;;;8.90;2.88;;;;;;;0.00;100.00;59042.03;10386354;28;20124;-77
2023/03/31 15:03:35;;;;;;;6.13;1.83;;;;;;;0.00;100.00;59042.03;10386190;28;20021;-78
2023/03/31 15:08:37;;;;;;;11.35;3.25;;;;;;;0.00;100.00;59042.03;10386481;28;20026;-78
2023/03/31 15:13:44;;;;;;;10.35;2.03;;;;;;;0.00;100.00;59042.03;10386254;28;20056;-78
2023/03/31 15:18:45;;;;;;;8.25;2.28;;;;;;;0.00;100.00;59042.03;10385309;28;20075;-77
2023/03/31 15:23:45;;;;;;;12.30;2.00;;;;;;;0.00;100.00;59042.03;10385241;28;20025;-78
2023/03/31 15:28:55;;;;;;;3.10;1.50;;;;;;;0.00;100.00;59042.03;10366128;28;20036;-77
2023/03/31 15:33:56;;;;;;;8.90;2.72;;;;;;;0.00;100.00;59042.03;10385038;28;20276;-78
2023/03/31 15:38:58;;;;;;;8.82;3.05;;;;;;;0.00;100.00;59042.03;10385689;28;20025;-79
2023/03/31 15:44:27;;;;;;;5.97;2.17;;;;;;;0.00;100.00;59042.03;10384483;28;20806;-77
2023/03/31 15:49:28;;;;;;;12.98;2.53;;;;;;;0.00;100.00;59042.03;10382981;28;20080;-78
2023/03/31 15:54:33;;;;;;;6.97;2.28;;;;;;;0.00;100.00;59042.03;10382856;28;20053;-78
2023/03/31 15:59:44;;;;;;;6.60;1.83;;;;;;;0.00;100.00;59042.03;10384718;28;20040;-78
2023/03/31 16:04:50;;;;;;;7.30;2.45;;;;;;;0.00;100.00;59042.03;10383079;28;20031;-78
2023/03/31 16:09:50;;;;;;;7.10;2.10;;;;;;;0.00;100.00;59042.03;10383566;28;20056;-76
2023/03/31 16:15:14;;;;;;;8.70;2.78;;;;;;;0.00;100.00;59042.03;10358069;28;20380;-77
2023/03/31 16:20:25;;;;;;;6.30;2.25;;;;;;;0.00;100.00;59042.03;10342571;28;20108;-77
2023/03/31 16:25:29;;;;;;;9.50;3.15;;;;;;;0.00;100.00;59042.03;10342331;28;20030;-76
2023/03/31 16:30:36;;;;;;;8.35;2.53;;;;;;;0.00;100.00;59042.03;10342072;28;20034;-77
2023/03/31 16:35:38;;;;;;;28.63;5.60;;;;;;;0.00;100.00;59042.03;10381570;28;20033;-77
2023/03/31 16:40:41;;;;;;;7.35;2.58;;;;;;;0.00;100.00;59042.03;10381059;28;20460;-77
2023/03/31 16:45:49;;;;;;;15.50;3.33;;;;;;;0.00;100.00;59042.03;10383279;28;20025;-77
2023/03/31 16:50:51;;;;;;;;;;;;;;;0.00;100.00;59042.03;10363099;28;20535;-79
2023/03/31 16:55:53;;;;;;;11.48;3.67;;;;;;;0.00;100.00;59042.03;10374179;28;19921;-78
2023/03/31 17:00:54;;;;;;;8.27;3.08;;;;;;;0.00;100.00;59042.03;10382147;28;20047;-77
2023/03/31 17:05:56;;;;;;;12.95;3.25;;;;;;;0.00;100.00;59042.03;10376848;28;20141;-78
2023/03/31 17:11:04;;;;;;;16.80;3.95;;;;;;;0.00;100.00;59042.03;10383133;28;20067;-77
2023/03/31 17:16:05;;;;;;;9.13;3.57;;;;;;;0.00;100.00;59042.03;10378577;28;20049;-77
2023/03/31 17:21:09;;;;;;;15.18;5.07;;;;;;;0.00;100.00;59042.03;10381730;28;20040;-76
2023/03/31 17:26:11;;;;;;;11.98;4.68;;;;;;;0.00;100.00;59042.03;10381815;28;20108;-76
2023/03/31 17:31:15;;;;;;;13.23;4.57;;;;;;;0.00;100.00;59042.03;10381132;28;20395;-76
2023/03/31 17:36:16;;;;;;;20.40;6.43;;;;;;;0.00;100.00;59042.03;10381502;28;20124;-77
2023/03/31 17:41:16;;;;;;;15.48;5.93;;;;;;;0.00;100.00;59042.03;10381420;28;20039;-77
2023/03/31 17:46:17;;;;;;;21.27;6.47;;;;;;;0.00;100.00;59042.03;10381961;28;20432;-76
2023/03/31 17:51:19;;;;;;;28.85;7.53;;;;;;;0.00;100.00;59042.03;10380455;28;20029;-77
2023/03/31 17:56:19;;;;;;;14.80;5.97;;;;;;;0.00;100.00;59042.03;10382425;28;20049;-77
2023/03/31 18:01:23;;;;;;;17.38;5.43;;;;;;;0.00;100.00;59042.03;10363687;28;20054;-76
2023/03/31 18:06:23;;;;;;;14.13;4.72;;;;;;;0.00;100.00;59042.03;10379221;28;20537;-77
2023/03/31 18:11:25;;;;;;;11.77;5.03;;;;;;;0.00;100.00;59042.03;10380063;28;20029;-77
2023/03/31 18:16:26;;;;;;;12.45;5.65;;;;;;;0.00;100.00;59042.03;10388436;28;20029;-77
2023/03/31 18:21:27;;;;;;;22.20;5.50;;;;;;;0.00;100.00;59042.03;10375010;28;20026;-74
2023/03/31 18:26:27;;;;;;;11.75;5.13;;;;;;;0.00;100.00;59042.03;10364050;28;20560;-76
2023/03/31 18:31:28;;;;;;;11.50;5.35;;;;;;;0.00;100.00;59042.03;10356142;28;20069;-70
2023/03/31 18:36:29;;;;;;;15.20;5.82;;;;;;;0.00;100.00;59042.03;10362519;28;20525;-76
2023/03/31 18:41:29;;;;;;;17.27;6.15;;;;;;;0.00;100.00;59042.03;10348024;28;20033;-76
2023/03/31 18:46:29;;;;;;;15.95;7.47;;;;;;;0.00;100.00;59042.03;10357334;28;20026;-74
2023/03/31 18:51:32;;;;;;;16.33;5.37;;;;;;;0.00;100.00;59042.03;10351969;28;20491;-80
2023/03/31 18:56:33;;;;;;;22.17;5.57;;;;;;;0.00;100.00;59042.03;10357420;28;20308;-81
2023/03/31 19:01:38;;;;;;;21.08;6.25;;;;;;;0.00;100.00;59042.03;10361311;28;20033;-76
2023/03/31 19:06:39;;;;;;;18.23;5.45;;;;;;;0.00;100.00;59042.03;10353011;28;20110;-73
2023/03/31 19:11:40;;;;;;;18.05;5.22;;;;;;;0.00;100.00;59042.03;10349300;28;20075;-78
2023/03/31 19:16:43;;;;;;;22.83;7.15;;;;;;;0.00;100.00;59042.03;10347126;28;20034;-77
2023/03/31 19:21:44;;;;;;;18.67;5.78;;;;;;;0.00;100.00;59042.03;10346109;28;20042;-75
2023/03/31 19:26:45;;;;;;;26.27;6.95;;;;;;;0.00;100.00;59042.03;10351235;28;20041;-77
2023/03/31 19:31:46;;;;;;;18.98;7.63;;;;;;;0.00;100.00;59042.03;10349589;28;20037;-74
2023/03/31 19:36:46;;;;;;;15.93;6.78;;;;;;;0.00;100.00;59042.03;10348432;28;20235;-71
2023/03/31 19:41:47;;;;;;;18.90;6.13;;;;;;;0.00;100.00;59042.03;10352622;28;20236;-72
2023/03/31 19:46:47;;;;;;;18.00;6.40;;;;;;;0.00;100.00;59042.03;10354281;28;20460;-71
2023/03/31 19:51:48;;;;;;;14.85;6.90;;;;;;;0.00;100.00;59042.03;10352091;28;20030;-71
2023/03/31 19:56:48;;;;;;;19.80;7.17;;;;;;;0.00;100.00;59042.03;10346482;28;20045;-71
2023/03/31 20:01:49;;;;;;;14.50;5.97;;;;;;;0.00;100.00;59042.03;10351831;28;20946;-71
2023/03/31 20:06:49;;;;;;;18.30;7.03;;;;;;;0.00;100.00;59042.03;10351393;28;20119;-72
2023/03/31 20:11:52;;;;;;;16.40;7.63;;;;;;;0.00;100.00;59042.03;10347951;28;20105;-72
2023/03/31 20:16:53;;;;;;;17.13;7.25;;;;;;;0.00;100.00;59042.03;10357895;28;20076;-73
2023/03/31 20:21:54;;;;;;;22.35;9.40;;;;;;;0.00;100.00;59042.03;10374094;28;20060;-73
2023/03/31 20:26:55;;;;;;;18.90;8.60;;;;;;;0.00;100.00;59042.03;10381184;28;20025;-72
2023/03/31 20:31:56;;;;;;;30.58;9.23;;;;;;;0.00;100.00;59042.03;10368577;28;20044;-72
2023/03/31 20:36:57;;;;;;;24.10;7.97;;;;;;;0.00;100.00;59042.03;10370878;28;20029;-72
2023/03/31 20:41:57;;;;;;;17.55;7.82;;;;;;;0.00;100.00;59042.03;10381161;28;20452;-71
2023/03/31 20:46:59;;;;;;;16.33;7.80;;;;;;;0.00;100.00;59042.03;10381377;28;20749;-72
2023/03/31 20:51:59;;;;;;;17.48;6.88;;;;;;;0.00;100.00;59042.03;10380686;28;20064;-69
2023/03/31 20:57:04;;;;;;;19.33;7.35;;;;;;;0.00;100.00;59042.03;10381778;28;20050;-71
2023/03/31 21:02:05;;;;;;;19.13;7.82;;;;;;;0.00;100.00;59042.03;10379456;28;20595;-71
2023/03/31 21:07:05;;;;;;;17.30;7.15;;;;;;;0.00;100.00;59042.03;10379788;28;20512;-72
2023/03/31 21:12:06;;;;;;;20.00;7.18;;;;;;;0.00;100.00;59042.03;10373300;28;20034;-71
2023/03/31 21:17:06;;;;;;;22.98;7.10;;;;;;;0.00;100.00;59042.03;10359521;28;20025;-72
2023/03/31 21:22:07;;;;;;;22.98;8.25;;;;;;;0.00;100.00;59042.03;10379009;28;20025;-72
2023/03/31 21:27:07;;;;;;;15.80;6.30;;;;;;;0.00;100.00;59042.03;10381009;28;20326;-72
2023/03/31 21:32:08;;;;;;;17.70;7.23;;;;;;;0.00;100.00;59042.03;10379450;28;20117;-71
2023/03/31 21:37:08;;;;;;;15.93;7.23;;;;;;;0.00;100.00;59042.03;10379690;28;20268;-72
2023/03/31 21:42:08;;;;;;;15.57;6.37;;;;;;;0.00;100.00;59042.03;10379740;28;20687;-72
2023/03/31 21:47:09;;;;;;;17.77;5.65;;;;;;;0.00;100.00;59042.03;10365359;28;20368;-73
2023/03/31 21:52:10;;;;;;;13.07;5.68;;;;;;;0.00;100.00;59042.03;10339271;28;20034;-73
2023/03/31 21:57:10;;;;;;;11.65;5.50;;;;;;;0.00;100.00;59042.03;10391032;28;20053;-72
2023/03/31 22:02:11;;;;;;;13.43;5.55;;;;;;;0.00;100.00;59042.03;10393402;28;20025;-73
2023/03/31 22:07:13;;;;;;;13.27;5.78;;;;;;;0.00;100.00;59042.03;10393383;28;20396;-73
2023/03/31 22:12:13;;;;;;;12.20;6.32;;;;;;;0.00;100.00;59042.03;10391822;28;20112;-72
2023/03/31 22:17:14;;;;;;;21.10;6.38;;;;;;;0.00;100.00;59042.03;10391840;28;20033;-72
2023/03/31 22:22:15;;;;;;;16.15;6.40;;;;;;;0.00;100.00;59042.03;10393461;28;20045;-71
2023/03/31 22:27:16;;;;;;;18.17;5.57;;;;;;;0.00;100.00;59042.03;10391447;28;20017;-71
2023/03/31 22:32:18;;;;;;;10.85;5.22;;;;;;;0.00;100.00;59042.03;10392386;28;20021;-74
2023/03/31 22:37:19;;;;;;;7.32;4.70;;;;;;;0.00;100.00;59042.03;10393233;28;20033;-72
2023/03/31 22:42:19;;;;;;;23.02;5.50;;;;;;;0.00;100.00;59042.03;10392867;28;20427;-73
2023/03/31 22:47:20;;;;;;;11.20;5.97;;;;;;;0.00;100.00;59042.03;10390952;28;20034;-72
2023/03/31 22:52:21;;;;;;;14.65;5.30;;;;;;;0.00;100.00;59042.03;10392221;28;20388;-73
2023/03/31 22:57:21;;;;;;;12.45;5.85;;;;;;;0.00;100.00;59042.03;10391515;28;20049;-74
2023/03/31 23:02:21;;;;;;;17.83;6.57;;;;;;;0.00;100.00;59042.03;10392091;28;20037;-73
2023/03/31 23:07:22;;;;;;;13.75;5.45;;;;;;;0.00;100.00;59042.03;10386924;28;20283;-73
2023/03/31 23:12:26;;;;;;;10.57;5.70;;;;;;;0.00;100.00;59042.03;10385324;28;20030;-75
2023/03/31 23:17:27;;;;;;;22.75;6.57;;;;;;;0.00;100.00;59042.03;10382264;28;20033;-72
2023/03/31 23:22:27;;;;;;;20.83;6.83;;;;;;;0.00;100.00;59042.03;10385183;28;20088;-72
2023/03/31 23:27:28;;;;;;;14.77;7.10;;;;;;;0.00;100.00;59042.03;10383492;28;20351;-73
2023/03/31 23:32:28;;;;;;;13.55;6.07;;;;;;;0.00;100.00;59042.03;10364689;28;20358;-72
2023/03/31 23:37:29;;;;;;;10.57;6.22;;;;;;;0.00;100.00;59042.03;10377982;28;20033;-73
2023/03/31 23:42:29;;;;;;;13.90;7.05;;;;;;;0.00;100.00;59042.03;10384203;28;20022;-73